createdAt,value
2022-08-17T00:06:34.460Z,21.01015625
2022-08-17T00:15:04.200Z,20.93828125
2022-08-17T00:24:58.729Z,20.861328125
2022-08-17T00:33:10.729Z,20.779296875
2022-08-17T00:40:44.722Z,20.73828125
2022-08-17T00:48:40.037Z,20.6357421875
2022-08-17T00:56:24.456Z,20.6408203125
2022-08-17T01:04:26.306Z,20.589453125
2022-08-17T01:12:47.504Z,20.471484375
2022-08-17T01:20:25.132Z,20.440625
2022-08-17T01:28:33.734Z,20.39453125
2022-08-17T01:37:06.502Z,20.2919921875
2022-08-17T01:44:51.116Z,20.2201171875
2022-08-17T01:52:27.907Z,20.2251953125
2022-08-17T02:00:07.545Z,20.15859375
2022-08-17T02:09:14.716Z,20.1021484375
2022-08-17T02:17:14.430Z,20.1123046875
2022-08-17T02:24:59.269Z,20.081640625
2022-08-17T02:33:42.304Z,19.9892578125
2022-08-17T02:41:44.099Z,19.88671875
2022-08-17T02:49:33.642Z,19.9482421875
2022-08-17T02:58:02.788Z,19.9021484375
2022-08-17T03:05:52.236Z,19.855859375
2022-08-17T03:13:17.363Z,19.7943359375
2022-08-17T03:21:00.005Z,19.7482421875
2022-08-17T03:29:27.325Z,19.7482421875
2022-08-17T03:36:55.635Z,19.6609375
2022-08-17T03:44:58.724Z,19.625
2022-08-17T03:52:56.084Z,19.6404296875
2022-08-17T04:00:31.511Z,19.5326171875
2022-08-17T04:08:03.613Z,19.4916015625
2022-08-17T04:16:01.828Z,19.5173828125
2022-08-17T04:23:43.222Z,19.4865234375
2022-08-17T04:31:38.553Z,19.496875
2022-08-17T04:39:49.024Z,19.4455078125
2022-08-17T04:47:40.984Z,19.47109375
2022-08-17T04:55:41.702Z,19.455859375
2022-08-17T05:03:12.842Z,19.4814453125
2022-08-17T05:11:25.872Z,19.4916015625
2022-08-17T05:18:57.185Z,19.619921875
2022-08-17T05:27:06.088Z,19.737890625
2022-08-17T05:34:57.855Z,19.727734375
2022-08-17T05:42:34.686Z,19.7943359375
2022-08-17T05:50:29.829Z,19.927734375
2022-08-17T05:58:13.856Z,20.0302734375
2022-08-17T06:05:54.946Z,20.1841796875
2022-08-17T06:13:30.618Z,20.1740234375
2022-08-17T06:21:10.657Z,20.3484375
2022-08-17T06:29:02.346Z,20.507421875
2022-08-17T06:36:50.903Z,20.65625
2022-08-17T06:44:51.656Z,20.81015625
2022-08-17T06:52:47.783Z,21.1384765625
2022-08-17T07:01:08.348Z,21.28203125
2022-08-17T07:09:03.549Z,21.287109375
2022-08-17T07:16:39.509Z,21.2974609375
2022-08-17T07:24:43.082Z,21.3794921875
2022-08-17T07:32:32.478Z,21.5796875
2022-08-17T07:40:15.723Z,21.86171875
2022-08-17T07:47:54.351Z,22.0412109375
2022-08-17T07:56:32.489Z,22.3490234375
2022-08-17T08:04:58.761Z,22.6568359375
2022-08-17T08:13:03.066Z,22.9955078125
2022-08-17T08:22:00.434Z,23.549609375
2022-08-17T08:29:38.991Z,23.6880859375
2022-08-17T08:39:00.059Z,23.7650390625
2022-08-17T08:46:48.533Z,24.00625
2022-08-17T08:55:37.158Z,24.4576171875
2022-08-17T09:04:24.523Z,24.934765625
2022-08-17T09:12:30.762Z,24.9654296875
2022-08-17T09:20:50.006Z,25.1400390625
2022-08-17T09:28:22.865Z,25.1912109375
2022-08-17T09:36:01.300Z,25.8478515625
2022-08-17T09:43:33.801Z,26.0890625
2022-08-17T09:51:20.155Z,26.166015625
2022-08-17T09:59:45.220Z,26.4123046875
2022-08-17T10:07:30.813Z,26.545703125
2022-08-17T10:15:56.698Z,26.5611328125
2022-08-17T10:24:05.342Z,26.7201171875
2022-08-17T10:33:07.167Z,26.981640625
2022-08-17T10:44:02.197Z,27.043359375
2022-08-17T10:52:35.288Z,27.0279296875
2022-08-17T10:59:08.319Z,27.4076171875
2022-08-17T11:02:09.633Z,27.705078125
2022-08-17T11:04:20.719Z,27.43828125
2022-08-17T11:12:00.437Z,27.361328125
2022-08-17T11:19:42.930Z,27.5615234375
2022-08-17T11:27:23.648Z,27.966796875
2022-08-17T11:35:14.725Z,27.9923828125
2022-08-17T11:42:51.122Z,28.4181640625
2022-08-17T11:51:16.480Z,27.9
2022-08-17T11:59:35.260Z,27.74609375
2022-08-17T12:07:12.330Z,27.61796875
2022-08-17T12:15:11.970Z,27.5921875
2022-08-17T12:22:55.203Z,27.55625
2022-08-17T12:31:25.257Z,27.7359375
2022-08-17T12:38:58.513Z,27.705078125
2022-08-17T12:46:39.216Z,27.9359375
2022-08-17T12:54:45.895Z,28.1103515625
2022-08-17T13:02:29.936Z,27.9462890625
2022-08-17T13:09:58.773Z,28.46953125
2022-08-17T13:17:35.982Z,28.39765625
2022-08-17T13:25:45.745Z,27.776953125
2022-08-17T13:33:48.629Z,27.694921875
2022-08-17T13:42:25.225Z,27.7873046875
2022-08-17T13:50:18.021Z,28.08984375
2022-08-17T13:58:22.158Z,27.9052734375
2022-08-17T14:06:51.656Z,27.5205078125
2022-08-17T14:14:31.888Z,27.8744140625
2022-08-17T14:22:24.286Z,28.120703125
2022-08-17T14:30:23.411Z,28.084765625
2022-08-17T14:37:58.760Z,27.96171875
2022-08-17T14:45:32.436Z,28.074609375
2022-08-17T14:53:16.846Z,27.96171875
2022-08-17T15:01:39.599Z,27.930859375
2022-08-17T15:09:14.928Z,27.9052734375
2022-08-17T15:16:59.930Z,27.6126953125
2022-08-17T15:24:38.865Z,27.58203125
2022-08-17T15:32:34.877Z,27.628125
2022-08-17T15:40:14.896Z,27.387109375
2022-08-17T15:47:50.439Z,27.428125
2022-08-17T15:55:41.408Z,27.2587890625
2022-08-17T16:05:33.942Z,27.043359375
2022-08-17T16:13:20.658Z,26.935546875
2022-08-17T16:21:48.539Z,26.9970703125
2022-08-17T16:29:22.530Z,26.85859375
2022-08-17T16:37:12.821Z,26.740625
2022-08-17T16:44:53.874Z,26.7046875
2022-08-17T16:52:46.198Z,26.5353515625
2022-08-17T17:00:45.928Z,26.3814453125
2022-08-17T17:08:21.078Z,26.2326171875
2022-08-17T17:16:35.415Z,26.130078125
2022-08-17T17:24:14.481Z,25.5400390625
2022-08-17T17:32:17.184Z,25.2322265625
2022-08-17T17:39:49.776Z,25.160546875
2022-08-17T17:48:19.200Z,24.9654296875
2022-08-17T17:56:18.830Z,25.0013671875
2022-08-17T18:04:24.317Z,24.9912109375
2022-08-17T18:12:15.526Z,24.93984375
2022-08-17T18:19:48.136Z,24.8064453125
2022-08-17T18:27:41.162Z,24.5037109375
2022-08-17T18:35:26.833Z,24.401171875
2022-08-17T18:43:06.228Z,24.283203125
2022-08-17T18:50:53.431Z,24.21640625
2022-08-17T18:58:40.200Z,24.12421875
2022-08-17T19:06:53.208Z,23.9908203125
2022-08-17T19:14:33.898Z,23.9138671875
2022-08-17T19:22:05.558Z,23.8728515625
2022-08-17T19:30:39.972Z,23.7958984375
2022-08-17T19:38:13.446Z,23.6984375
2022-08-17T19:46:05.572Z,23.467578125
2022-08-17T19:54:27.626Z,23.20078125
2022-08-17T20:01:57.259Z,23.1390625
2022-08-17T20:10:20.835Z,23.0263671875
2022-08-17T20:18:20.613Z,22.8826171875
2022-08-17T20:26:19.386Z,22.775
2022-08-17T20:34:22.599Z,22.67734375
2022-08-17T20:41:51.460Z,22.54921875
2022-08-17T20:50:02.778Z,22.3798828125
2022-08-17T20:57:48.050Z,22.24140625
2022-08-17T21:05:34.179Z,22.282421875
2022-08-17T21:13:44.964Z,22.27734375
2022-08-17T21:21:20.531Z,22.2158203125
2022-08-17T21:29:17.216Z,22.2978515625
2022-08-17T21:37:22.373Z,22.1900390625
2022-08-17T21:45:14.129Z,22.159375
2022-08-17T21:52:53.734Z,22.1080078125
2022-08-17T22:00:54.611Z,21.96953125
2022-08-17T22:08:42.258Z,21.9900390625
2022-08-17T22:16:45.007Z,21.9490234375
2022-08-17T22:24:17.722Z,21.902734375
2022-08-17T22:31:48.719Z,21.7642578125
2022-08-17T22:39:21.296Z,21.748828125
2022-08-17T22:47:03.889Z,21.7078125
2022-08-17T22:54:37.797Z,21.69765625
2022-08-17T23:02:34.291Z,21.6771484375
2022-08-17T23:10:05.552Z,21.6359375
2022-08-17T23:14:48.256Z,21.6462890625
2022-08-17T23:22:32.454Z,21.666796875
2022-08-17T23:30:07.806Z,21.6052734375
2022-08-17T23:37:33.143Z,21.656640625
2022-08-17T23:45:16.320Z,21.5078125
2022-08-17T23:52:52.367Z,21.4462890625
